Sweet Lake, Louisiana
Current Conditions -  °F | °C
As of 4:53 PM on Thursday 27 Nov 2014 (Local Time) from KLCH Reporting Station
Clear Clear  
Wind Chill: 59°   Ceiling: Unl
Heat Index: 59°   Visibility: 10mi
Dew Point: 33°   Wind: 6mph
Humidity: 38%   Direction: 20°NNE
Pressure: 30.42"   Gusts: NA
Location:  30.1766°N, 93.2305°W
Report Text: KLCH 272253Z 02005KT 10SM CLR 15/01 A3042 RMK AO2 SLP309 T01500006
Loading
Personal Weather Stations






























Interactive Weather Map New forecast layout! Learn more

10-Day Weather Forecast

Advertisements
Track Severe Weather on mobile